Time;durP1;ratioP1;P1;durP2;ratioP2;P2;SDS_P1;SDS_P2;PMS_P1;PMS_P2;Temp;Humidity;BMP_temperature;BMP_pressure;BME280_temperature;BME280_humidity;BME280_pressure;Samples;Min_cycle;Max_cycle;Signal;HPM_P1;HPM_P2
2021/11/22 00:00:09;;;;;;;3.20;1.00;;;;;;;;;;4989478;28;20463;-77
2021/11/22 00:02:34;;;;;;;1.60;1.20;;;;;;;;;;4995403;28;20186;-77
2021/11/22 00:05:00;;;;;;;4.80;1.30;;;;;;;;;;4990545;28;20453;-77
2021/11/22 00:07:25;;;;;;;4.30;1.20;;;;;;;;;;4990139;28;20251;-76
2021/11/22 00:09:50;;;;;;;3.80;1.27;;;;;;;;;;4990379;28;20193;-76
2021/11/22 00:12:16;;;;;;;4.37;1.43;;;;;;;;;;4987699;28;20809;-77
2021/11/22 00:14:41;;;;;;;4.60;1.20;;;;;;;;;;4993321;28;20187;-76
2021/11/22 00:17:06;;;;;;;8.77;1.00;;;;;;;;;;4992765;28;20536;-76
2021/11/22 00:19:33;;;;;;;1.80;1.30;;;;;;;;;;4993606;28;20742;-77
2021/11/22 00:21:59;;;;;;;5.70;1.30;;;;;;;;;;4992701;28;20181;-77
2021/11/22 00:24:24;;;;;;;4.77;1.93;;;;;;;;;;4995488;28;20521;-77
2021/11/22 00:26:49;;;;;;;3.37;0.93;;;;;;;;;;4994040;28;20209;-76
2021/11/22 00:29:15;;;;;;;5.50;1.20;;;;;;;;;;4993085;28;20178;-77
2021/11/22 00:31:41;;;;;;;4.73;0.97;;;;;;;;;;4988460;28;20184;-76
2021/11/22 00:34:07;;;;;;;5.80;1.17;;;;;;;;;;4995774;28;20182;-76
2021/11/22 00:36:33;;;;;;;3.53;1.07;;;;;;;;;;4995846;28;20514;-77
2021/11/22 00:38:58;;;;;;;3.90;1.40;;;;;;;;;;4994755;28;20440;-76
2021/11/22 00:41:23;;;;;;;3.37;1.10;;;;;;;;;;4999007;28;20263;-77
2021/11/22 00:43:49;;;;;;;5.53;1.50;;;;;;;;;;4994133;28;20184;-77
2021/11/22 00:46:14;;;;;;;5.90;1.30;;;;;;;;;;4992792;28;20248;-77
2021/11/22 00:48:40;;;;;;;1.70;0.93;;;;;;;;;;4993905;28;20181;-77
2021/11/22 00:51:05;;;;;;;6.63;1.27;;;;;;;;;;4993838;28;20185;-77
2021/11/22 00:53:32;;;;;;;3.83;1.30;;;;;;;;;;4993890;28;20246;-77
2021/11/22 00:55:57;;;;;;;2.53;0.97;;;;;;;;;;4990956;28;20206;-76
2021/11/22 00:58:22;;;;;;;3.03;1.03;;;;;;;;;;4997751;28;20439;-76
2021/11/22 01:00:48;;;;;;;8.90;1.20;;;;;;;;;;4998884;28;20309;-77
2021/11/22 01:03:14;;;;;;;3.00;1.10;;;;;;;;;;4999437;28;20266;-76
2021/11/22 01:05:39;;;;;;;1.90;0.90;;;;;;;;;;4987899;28;20201;-77
2021/11/22 01:08:05;;;;;;;3.27;1.60;;;;;;;;;;4988635;28;20497;-76
2021/11/22 01:10:30;;;;;;;1.30;0.93;;;;;;;;;;4996076;28;20196;-77
2021/11/22 01:12:56;;;;;;;1.33;0.90;;;;;;;;;;5001965;28;20193;-77
2021/11/22 01:15:22;;;;;;;6.90;0.90;;;;;;;;;;4994956;28;20216;-76
2021/11/22 01:17:49;;;;;;;4.07;1.00;;;;;;;;;;4996282;28;20177;-77
2021/11/22 01:20:15;;;;;;;2.00;0.70;;;;;;;;;;4989295;28;20464;-77
2021/11/22 01:22:41;;;;;;;1.20;0.80;;;;;;;;;;5008130;28;20859;-77
2021/11/22 01:25:07;;;;;;;2.77;1.20;;;;;;;;;;4994340;28;20464;-77
2021/11/22 01:27:32;;;;;;;1.60;1.00;;;;;;;;;;4993410;28;20193;-77
2021/11/22 01:29:57;;;;;;;3.00;0.83;;;;;;;;;;4994029;28;20190;-77
2021/11/22 01:32:23;;;;;;;1.57;0.90;;;;;;;;;;4988556;28;20189;-77
2021/11/22 01:34:48;;;;;;;3.23;0.97;;;;;;;;;;4993129;28;20219;-77
2021/11/22 01:37:13;;;;;;;2.80;0.90;;;;;;;;;;4995012;28;20217;-76
2021/11/22 01:39:39;;;;;;;2.00;0.93;;;;;;;;;;4994932;28;20279;-76
2021/11/22 01:42:04;;;;;;;1.97;0.97;;;;;;;;;;4993467;28;20181;-77
2021/11/22 01:44:30;;;;;;;1.70;0.83;;;;;;;;;;4992995;28;20174;-77
2021/11/22 01:46:55;;;;;;;3.17;0.87;;;;;;;;;;4988623;28;20207;-76
2021/11/22 01:49:20;;;;;;;3.60;0.90;;;;;;;;;;4994778;28;20592;-77
2021/11/22 01:51:46;;;;;;;1.93;1.00;;;;;;;;;;4992831;28;20557;-77
2021/11/22 01:54:12;;;;;;;5.00;0.73;;;;;;;;;;4992276;28;20185;-78
2021/11/22 01:56:37;;;;;;;2.67;1.00;;;;;;;;;;4997126;28;20263;-76
2021/11/22 01:59:03;;;;;;;2.90;0.90;;;;;;;;;;4992594;28;20439;-77
2021/11/22 02:01:28;;;;;;;3.33;1.00;;;;;;;;;;4991153;28;20248;-77
2021/11/22 02:03:53;;;;;;;2.87;0.93;;;;;;;;;;4993558;28;20247;-77
2021/11/22 02:06:19;;;;;;;1.33;0.60;;;;;;;;;;4989766;28;20206;-76
2021/11/22 02:08:45;;;;;;;2.63;0.67;;;;;;;;;;5004775;28;20182;-76
2021/11/22 02:11:12;;;;;;;1.40;0.80;;;;;;;;;;4995480;28;20268;-76
2021/11/22 02:13:37;;;;;;;3.87;1.00;;;;;;;;;;4988007;28;20515;-77
2021/11/22 02:16:02;;;;;;;1.27;0.70;;;;;;;;;;4992843;28;20542;-76
2021/11/22 02:18:28;;;;;;;2.27;0.70;;;;;;;;;;4991864;28;20193;-77
2021/11/22 02:20:53;;;;;;;2.13;0.70;;;;;;;;;;4990428;28;20267;-77
2021/11/22 02:23:19;;;;;;;1.20;0.60;;;;;;;;;;4993161;28;20184;-78
2021/11/22 02:25:44;;;;;;;2.57;0.83;;;;;;;;;;4990019;28;20413;-77
2021/11/22 02:28:11;;;;;;;5.10;0.90;;;;;;;;;;4994362;28;20192;-77
2021/11/22 02:30:38;;;;;;;2.30;0.90;;;;;;;;;;4987618;28;20220;-77
2021/11/22 02:33:11;;;;;;;2.40;1.00;;;;;;;;;;4991247;28;20521;-77
2021/11/22 02:35:38;;;;;;;1.90;0.80;;;;;;;;;;4988518;28;21521;-77
2021/11/22 02:38:04;;;;;;;2.10;0.73;;;;;;;;;;4990080;28;20435;-76
2021/11/22 02:40:30;;;;;;;2.40;0.80;;;;;;;;;;4988380;28;20479;-77
2021/11/22 02:42:55;;;;;;;0.63;0.60;;;;;;;;;;4992718;28;20442;-76
2021/11/22 02:45:21;;;;;;;3.23;0.80;;;;;;;;;;4991962;28;20230;-76
2021/11/22 02:47:47;;;;;;;2.67;0.70;;;;;;;;;;4988816;28;20264;-77
2021/11/22 02:50:13;;;;;;;3.30;0.70;;;;;;;;;;4991777;28;20186;-77
2021/11/22 02:52:40;;;;;;;3.20;0.70;;;;;;;;;;4990854;28;20456;-77
2021/11/22 02:55:06;;;;;;;2.70;0.80;;;;;;;;;;4987212;28;20463;-77
2021/11/22 02:57:32;;;;;;;2.40;0.70;;;;;;;;;;4989998;28;20533;-77
2021/11/22 02:59:57;;;;;;;3.27;1.00;;;;;;;;;;4992469;28;20512;-77
2021/11/22 03:02:22;;;;;;;3.87;0.70;;;;;;;;;;4990913;28;20254;-78
2021/11/22 03:04:48;;;;;;;2.80;0.90;;;;;;;;;;4989213;28;20339;-77
2021/11/22 03:07:13;;;;;;;1.53;0.53;;;;;;;;;;4993447;28;20181;-77
2021/11/22 03:09:39;;;;;;;3.80;1.73;;;;;;;;;;4988958;28;20185;-77
2021/11/22 03:12:06;;;;;;;2.87;0.70;;;;;;;;;;4989655;28;20193;-76
2021/11/22 03:14:32;;;;;;;2.33;0.80;;;;;;;;;;4990540;28;20240;-77
2021/11/22 03:16:58;;;;;;;1.70;0.70;;;;;;;;;;4987533;28;20546;-76
2021/11/22 03:19:23;;;;;;;4.00;0.70;;;;;;;;;;4995932;28;20982;-77
2021/11/22 03:21:49;;;;;;;3.43;0.80;;;;;;;;;;4990723;28;20178;-76
2021/11/22 03:24:14;;;;;;;1.97;0.60;;;;;;;;;;4991936;28;20185;-77
2021/11/22 03:26:40;;;;;;;1.33;0.73;;;;;;;;;;4986254;28;20212;-77
2021/11/22 03:29:05;;;;;;;2.13;0.63;;;;;;;;;;4994513;28;20184;-77
2021/11/22 03:31:32;;;;;;;3.73;0.93;;;;;;;;;;4989623;28;20288;-77
2021/11/22 03:33:58;;;;;;;3.20;0.87;;;;;;;;;;4990773;28;20192;-77
2021/11/22 03:36:23;;;;;;;2.10;0.70;;;;;;;;;;4987624;28;20457;-76
2021/11/22 03:38:49;;;;;;;2.07;1.10;;;;;;;;;;4992563;28;20460;-77
2021/11/22 03:41:16;;;;;;;1.03;0.60;;;;;;;;;;4986583;28;20756;-77
2021/11/22 03:43:56;;;;;;;2.17;0.70;;;;;;;;;;4990762;28;20934;-77
2021/11/22 03:46:22;;;;;;;2.60;0.73;;;;;;;;;;4990591;28;20498;-77
2021/11/22 03:48:48;;;;;;;1.87;0.60;;;;;;;;;;4990872;28;20459;-77
2021/11/22 03:51:13;;;;;;;1.70;0.87;;;;;;;;;;4988986;28;20182;-77
2021/11/22 03:53:39;;;;;;;1.20;0.70;;;;;;;;;;4992261;28;20934;-77
2021/11/22 03:56:04;;;;;;;3.27;1.10;;;;;;;;;;4987147;28;20672;-77
2021/11/22 03:58:30;;;;;;;1.77;0.80;;;;;;;;;;4992270;28;20190;-77
2021/11/22 04:00:55;;;;;;;0.97;0.83;;;;;;;;;;4988521;28;20315;-76
2021/11/22 04:03:21;;;;;;;1.77;0.80;;;;;;;;;;4986569;28;20191;-77
2021/11/22 04:05:48;;;;;;;1.90;0.97;;;;;;;;;;4991748;28;20292;-77
2021/11/22 04:08:13;;;;;;;3.40;0.77;;;;;;;;;;4993363;28;21000;-76
2021/11/22 04:10:38;;;;;;;2.10;0.77;;;;;;;;;;4993628;28;20436;-77
2021/11/22 04:13:05;;;;;;;1.13;1.03;;;;;;;;;;4990922;28;20181;-76
2021/11/22 04:15:30;;;;;;;1.73;0.90;;;;;;;;;;4986743;28;20208;-76
2021/11/22 04:17:55;;;;;;;4.63;0.80;;;;;;;;;;4990036;28;20439;-76
2021/11/22 04:20:21;;;;;;;2.80;0.90;;;;;;;;;;4994547;28;20311;-76
2021/11/22 04:22:46;;;;;;;2.10;0.80;;;;;;;;;;4991718;28;20182;-76
2021/11/22 04:25:11;;;;;;;2.07;1.00;;;;;;;;;;4989292;28;20300;-77
2021/11/22 04:27:37;;;;;;;2.03;1.00;;;;;;;;;;4986715;28;20361;-76
2021/11/22 04:30:04;;;;;;;4.20;1.10;;;;;;;;;;4991062;28;20189;-76
2021/11/22 04:32:30;;;;;;;5.00;1.00;;;;;;;;;;4991560;28;20196;-76
2021/11/22 04:34:55;;;;;;;3.33;0.90;;;;;;;;;;4989880;28;20460;-76
2021/11/22 04:37:25;;;;;;;1.10;0.90;;;;;;;;;;4999552;28;20644;-76
2021/11/22 04:39:50;;;;;;;2.13;0.90;;;;;;;;;;4991940;28;20215;-76
2021/11/22 04:42:15;;;;;;;3.17;0.83;;;;;;;;;;4990490;28;20448;-77
2021/11/22 04:44:41;;;;;;;2.73;0.90;;;;;;;;;;5005181;28;20890;-76
2021/11/22 04:47:09;;;;;;;1.33;0.80;;;;;;;;;;4987073;28;20181;-77
2021/11/22 04:49:35;;;;;;;1.53;0.80;;;;;;;;;;4989217;28;20269;-77
2021/11/22 04:52:00;;;;;;;2.60;0.80;;;;;;;;;;4990210;28;20437;-78
2021/11/22 04:54:25;;;;;;;2.33;0.90;;;;;;;;;;4986832;28;20177;-77
2021/11/22 04:56:51;;;;;;;2.40;0.80;;;;;;;;;;4987285;28;20210;-77
2021/11/22 04:59:16;;;;;;;3.33;1.03;;;;;;;;;;4991444;28;20805;-77
2021/11/22 05:01:41;;;;;;;1.07;0.97;;;;;;;;;;4989038;28;20548;-77
2021/11/22 05:04:07;;;;;;;1.30;0.80;;;;;;;;;;4992207;28;20217;-77
2021/11/22 05:06:32;;;;;;;1.63;1.03;;;;;;;;;;4992280;28;20237;-77
2021/11/22 05:08:57;;;;;;;2.47;0.80;;;;;;;;;;4992735;28;20598;-77
2021/11/22 05:11:23;;;;;;;1.07;0.70;;;;;;;;;;4989454;28;20189;-77
2021/11/22 05:13:48;;;;;;;0.97;0.70;;;;;;;;;;4994754;28;20599;-76
2021/11/22 05:16:13;;;;;;;1.70;0.90;;;;;;;;;;4990393;28;20236;-77
2021/11/22 05:18:39;;;;;;;1.60;1.00;;;;;;;;;;4991562;28;20213;-77
2021/11/22 05:21:04;;;;;;;2.00;0.80;;;;;;;;;;4992163;28;20201;-77
2021/11/22 05:23:30;;;;;;;2.57;0.93;;;;;;;;;;4993058;28;20185;-76
2021/11/22 05:25:55;;;;;;;2.70;1.20;;;;;;;;;;4993121;28;20585;-77
2021/11/22 05:28:21;;;;;;;2.63;0.80;;;;;;;;;;4984993;28;20189;-77
2021/11/22 05:30:47;;;;;;;3.53;0.97;;;;;;;;;;4989063;28;25132;-77
2021/11/22 05:33:12;;;;;;;5.03;1.00;;;;;;;;;;4990093;28;20435;-77
2021/11/22 05:35:37;;;;;;;1.37;0.80;;;;;;;;;;4988835;28;20503;-78
2021/11/22 05:38:03;;;;;;;1.30;0.70;;;;;;;;;;4990861;28;20186;-78
2021/11/22 05:40:29;;;;;;;3.67;0.93;;;;;;;;;;4992074;28;20271;-78
2021/11/22 05:42:55;;;;;;;2.60;0.90;;;;;;;;;;4993278;28;20174;-79
2021/11/22 05:45:20;;;;;;;1.33;1.10;;;;;;;;;;4994060;28;20209;-78
2021/11/22 05:47:47;;;;;;;2.87;1.60;;;;;;;;;;4990264;28;20670;-78
2021/11/22 05:50:12;;;;;;;2.77;1.67;;;;;;;;;;4988578;28;20232;-77
2021/11/22 05:52:39;;;;;;;2.83;1.60;;;;;;;;;;4991728;28;20515;-77
2021/11/22 05:55:06;;;;;;;4.47;2.10;;;;;;;;;;4990854;28;20259;-77
2021/11/22 05:57:32;;;;;;;4.57;2.23;;;;;;;;;;4994063;28;20452;-78
2021/11/22 05:59:57;;;;;;;4.03;2.33;;;;;;;;;;4995078;28;20475;-78
2021/11/22 06:02:23;;;;;;;4.73;2.77;;;;;;;;;;4988831;28;25081;-77
2021/11/22 06:04:48;;;;;;;9.97;3.00;;;;;;;;;;4993362;28;20187;-78
2021/11/22 06:07:13;;;;;;;6.57;2.10;;;;;;;;;;4995000;28;20261;-78
2021/11/22 06:09:39;;;;;;;4.13;2.40;;;;;;;;;;4994264;28;20206;-77
2021/11/22 06:12:04;;;;;;;3.10;1.40;;;;;;;;;;4990854;28;20784;-78
2021/11/22 06:14:30;;;;;;;3.23;1.50;;;;;;;;;;4991876;28;26177;-77
2021/11/22 06:16:55;;;;;;;2.20;1.40;;;;;;;;;;4991874;28;20243;-78
2021/11/22 06:19:21;;;;;;;1.73;1.37;;;;;;;;;;4991954;28;20195;-78
2021/11/22 06:21:46;;;;;;;2.07;1.33;;;;;;;;;;4994399;28;20192;-78
2021/11/22 06:24:11;;;;;;;3.37;1.17;;;;;;;;;;4994580;28;20855;-78
2021/11/22 06:26:37;;;;;;;1.63;1.30;;;;;;;;;;4994186;28;20236;-78
2021/11/22 06:29:02;;;;;;;1.97;1.40;;;;;;;;;;4993406;28;20188;-79
2021/11/22 06:31:27;;;;;;;1.50;0.90;;;;;;;;;;4993393;28;20193;-78
2021/11/22 06:33:53;;;;;;;2.97;1.00;;;;;;;;;;4992054;28;20549;-79
2021/11/22 06:36:18;;;;;;;1.17;1.00;;;;;;;;;;4992253;28;20201;-78
2021/11/22 06:38:44;;;;;;;1.00;0.90;;;;;;;;;;4992851;28;20178;-78
2021/11/22 06:41:09;;;;;;;1.93;1.00;;;;;;;;;;4999106;28;20209;-78
2021/11/22 06:43:34;;;;;;;2.97;1.20;;;;;;;;;;4993769;28;20178;-78
2021/11/22 06:46:00;;;;;;;2.40;1.50;;;;;;;;;;4995321;28;20198;-77
2021/11/22 06:48:25;;;;;;;2.03;1.03;;;;;;;;;;4992419;28;25101;-78
2021/11/22 06:50:50;;;;;;;2.23;1.43;;;;;;;;;;4993872;28;20182;-79
2021/11/22 06:53:21;;;;;;;4.37;1.77;;;;;;;;;;4993224;28;20217;-78
2021/11/22 06:55:46;;;;;;;2.40;1.37;;;;;;;;;;4993020;28;20710;-78
2021/11/22 06:58:11;;;;;;;2.67;1.40;;;;;;;;;;4992189;28;20447;-78
2021/11/22 07:00:37;;;;;;;3.27;1.60;;;;;;;;;;4989768;28;20201;-78
2021/11/22 07:03:02;;;;;;;3.00;1.50;;;;;;;;;;4993456;28;20181;-78
2021/11/22 07:05:28;;;;;;;2.77;1.43;;;;;;;;;;4993805;28;20208;-78
2021/11/22 07:07:53;;;;;;;2.73;1.90;;;;;;;;;;4990929;28;20182;-78
2021/11/22 07:10:21;;;;;;;3.13;1.50;;;;;;;;;;4990760;28;20516;-78
2021/11/22 07:12:46;;;;;;;2.80;1.40;;;;;;;;;;4989900;28;20185;-78
2021/11/22 07:15:17;;;;;;;4.37;1.57;;;;;;;;;;4992651;28;20824;-78
2021/11/22 07:17:42;;;;;;;2.40;1.20;;;;;;;;;;5002235;28;20374;-78
2021/11/22 07:20:08;;;;;;;1.50;1.20;;;;;;;;;;4990524;28;20463;-78
2021/11/22 07:22:33;;;;;;;3.30;1.70;;;;;;;;;;4990838;28;20181;-79
2021/11/22 07:24:58;;;;;;;3.47;1.90;;;;;;;;;;4991959;28;20237;-77
2021/11/22 07:27:25;;;;;;;3.47;1.73;;;;;;;;;;4997392;28;20177;-78
2021/11/22 07:29:50;;;;;;;2.30;1.40;;;;;;;;;;4994143;28;20646;-78
2021/11/22 07:32:16;;;;;;;3.33;1.90;;;;;;;;;;4990408;28;20435;-78
2021/11/22 07:34:41;;;;;;;2.33;1.47;;;;;;;;;;4990432;28;25057;-78
2021/11/22 07:37:07;;;;;;;3.03;1.83;;;;;;;;;;4990564;28;20177;-79
2021/11/22 07:39:32;;;;;;;2.93;1.70;;;;;;;;;;4993376;28;20176;-78
2021/11/22 07:41:58;;;;;;;3.03;1.73;;;;;;;;;;4992194;28;20534;-77
2021/11/22 07:44:25;;;;;;;2.70;1.90;;;;;;;;;;4989514;28;20194;-78
2021/11/22 07:46:51;;;;;;;3.93;1.80;;;;;;;;;;4990851;28;25053;-78
2021/11/22 07:49:16;;;;;;;4.30;2.00;;;;;;;;;;4988820;28;20439;-77
2021/11/22 07:51:41;;;;;;;4.00;1.83;;;;;;;;;;4990591;28;20935;-78
2021/11/22 07:54:07;;;;;;;5.17;1.67;;;;;;;;;;4993028;28;20619;-78
2021/11/22 07:56:32;;;;;;;3.43;1.30;;;;;;;;;;4991912;28;25849;-78
2021/11/22 07:58:58;;;;;;;3.40;2.00;;;;;;;;;;4993203;28;20860;-78
2021/11/22 08:01:25;;;;;;;4.33;1.83;;;;;;;;;;4991724;28;20241;-78
2021/11/22 08:03:50;;;;;;;2.80;1.50;;;;;;;;;;4992067;28;20648;-78
2021/11/22 08:06:16;;;;;;;4.70;1.90;;;;;;;;;;4991976;28;20448;-78
2021/11/22 08:08:41;;;;;;;2.10;1.37;;;;;;;;;;4992338;28;20253;-77
2021/11/22 08:13:35;;;;;;;2.40;1.73;;;;;;;;;;4992627;28;20876;-76
2021/11/22 08:16:02;;;;;;;3.40;2.00;;;;;;;;;;4990833;28;20204;-76
2021/11/22 08:18:28;;;;;;;8.30;1.70;;;;;;;;;;4988773;28;20586;-76
2021/11/22 08:20:54;;;;;;;3.13;2.00;;;;;;;;;;4992884;28;20614;-75
2021/11/22 08:23:19;;;;;;;2.80;1.50;;;;;;;;;;4989483;28;21016;-77
2021/11/22 08:25:45;;;;;;;6.10;2.50;;;;;;;;;;4989944;28;20463;-76
2021/11/22 08:28:11;;;;;;;6.37;2.03;;;;;;;;;;4995239;28;20680;-77
2021/11/22 08:30:37;;;;;;;9.90;1.87;;;;;;;;;;4992013;28;20285;-77
2021/11/22 08:33:02;;;;;;;5.90;2.67;;;;;;;;;;4996078;28;20512;-77
2021/11/22 08:35:31;;;;;;;4.30;2.50;;;;;;;;;;4991714;28;20201;-78
2021/11/22 08:37:56;;;;;;;5.90;2.60;;;;;;;;;;4990998;28;20181;-76
2021/11/22 08:40:23;;;;;;;9.50;3.43;;;;;;;;;;4998639;28;20460;-77
2021/11/22 08:42:49;;;;;;;4.60;2.40;;;;;;;;;;4996791;28;20181;-78
2021/11/22 08:45:15;;;;;;;8.60;3.23;;;;;;;;;;4996287;28;20976;-77
2021/11/22 08:47:40;;;;;;;4.03;2.60;;;;;;;;;;4994161;28;20419;-78
2021/11/22 08:50:07;;;;;;;5.30;3.00;;;;;;;;;;4998756;28;21607;-78
2021/11/22 08:52:33;;;;;;;5.23;2.67;;;;;;;;;;4994968;28;20169;-77
2021/11/22 08:54:58;;;;;;;7.43;2.87;;;;;;;;;;4994195;28;20856;-78
2021/11/22 08:57:23;;;;;;;11.83;2.73;;;;;;;;;;4997632;28;20181;-77
2021/11/22 08:59:49;;;;;;;6.30;2.43;;;;;;;;;;4997992;28;20199;-77
2021/11/22 09:02:15;;;;;;;10.00;2.77;;;;;;;;;;4995596;28;20174;-77
2021/11/22 09:04:40;;;;;;;3.90;2.83;;;;;;;;;;4993034;28;20186;-77
2021/11/22 09:07:07;;;;;;;5.10;2.40;;;;;;;;;;4992060;28;20441;-77
2021/11/22 09:09:32;;;;;;;2.37;2.10;;;;;;;;;;4994332;28;20210;-77
2021/11/22 09:11:58;;;;;;;3.83;2.10;;;;;;;;;;4999255;28;20471;-78
2021/11/22 09:14:23;;;;;;;5.20;2.17;;;;;;;;;;4993563;28;20182;-77
2021/11/22 09:16:49;;;;;;;7.87;4.60;;;;;;;;;;4994020;28;20197;-77
2021/11/22 09:19:14;;;;;;;5.60;2.70;;;;;;;;;;4992482;28;20206;-77
2021/11/22 09:21:40;;;;;;;3.07;2.00;;;;;;;;;;4997868;28;25054;-77
2021/11/22 09:24:05;;;;;;;3.47;1.60;;;;;;;;;;4997699;28;20190;-77
2021/11/22 09:26:31;;;;;;;3.43;1.60;;;;;;;;;;4992655;28;20218;-78
2021/11/22 09:28:57;;;;;;;3.27;1.40;;;;;;;;;;4993143;28;20645;-77
2021/11/22 09:31:22;;;;;;;3.23;1.73;;;;;;;;;;4997298;28;20285;-77
2021/11/22 09:33:50;;;;;;;1.50;1.40;;;;;;;;;;4995502;28;20757;-77
2021/11/22 09:36:16;;;;;;;1.43;1.33;;;;;;;;;;4993361;28;20222;-77
2021/11/22 09:38:41;;;;;;;3.83;1.50;;;;;;;;;;4995975;28;20442;-78
2021/11/22 09:41:07;;;;;;;4.00;1.60;;;;;;;;;;4996809;28;25107;-77
2021/11/22 09:43:33;;;;;;;5.50;1.50;;;;;;;;;;4998609;28;25113;-77
2021/11/22 09:45:59;;;;;;;6.00;1.07;;;;;;;;;;4993358;28;25150;-77
2021/11/22 09:48:24;;;;;;;1.20;0.80;;;;;;;;;;4996692;28;25130;-77
2021/11/22 09:50:50;;;;;;;2.20;1.13;;;;;;;;;;4995113;28;20434;-78
2021/11/22 09:53:15;;;;;;;2.50;0.97;;;;;;;;;;4999156;28;25144;-78
2021/11/22 09:55:42;;;;;;;2.27;1.13;;;;;;;;;;4992317;28;20259;-77
2021/11/22 09:58:08;;;;;;;1.37;1.13;;;;;;;;;;4998206;28;25156;-78
2021/11/22 10:00:35;;;;;;;1.80;1.03;;;;;;;;;;4996374;28;25107;-77
2021/11/22 10:03:00;;;;;;;3.30;1.23;;;;;;;;;;4994657;28;20442;-77
2021/11/22 10:05:29;;;;;;;2.47;1.83;;;;;;;;;;4997158;28;20462;-77
2021/11/22 10:08:10;;;;;;;2.60;1.00;;;;;;;;;;4995110;28;20555;-77
2021/11/22 10:10:46;;;;;;;3.17;1.40;;;;;;;;;;4995629;28;20479;-77
2021/11/22 10:13:28;;;;;;;1.80;1.23;;;;;;;;;;5007068;28;20446;-77
2021/11/22 10:15:58;;;;;;;2.70;1.30;;;;;;;;;;4990910;28;20604;-77
2021/11/22 10:18:26;;;;;;;1.80;1.07;;;;;;;;;;4991849;28;20490;-76
2021/11/22 10:20:51;;;;;;;2.33;1.20;;;;;;;;;;4993205;28;20460;-77
2021/11/22 10:23:25;;;;;;;1.40;1.27;;;;;;;;;;4991374;28;20590;-77
2021/11/22 10:25:51;;;;;;;1.73;1.00;;;;;;;;;;4991737;28;25067;-77
2021/11/22 10:28:21;;;;;;;2.30;1.10;;;;;;;;;;4993534;28;20657;-77
2021/11/22 10:30:48;;;;;;;2.50;0.70;;;;;;;;;;4994833;28;20424;-77
2021/11/22 10:33:15;;;;;;;1.80;0.97;;;;;;;;;;4990380;28;20441;-78
2021/11/22 10:35:41;;;;;;;1.53;0.83;;;;;;;;;;4988591;28;20459;-77
2021/11/22 10:38:12;;;;;;;3.13;0.90;;;;;;;;;;4990803;28;20455;-78
2021/11/22 10:40:39;;;;;;;2.20;0.90;;;;;;;;;;4993551;28;20228;-78
2021/11/22 10:43:06;;;;;;;2.53;0.90;;;;;;;;;;4989014;28;20433;-78
2021/11/22 10:45:36;;;;;;;2.50;1.00;;;;;;;;;;4989706;28;20962;-79
2021/11/22 10:48:10;;;;;;;2.90;1.00;;;;;;;;;;4988775;28;20441;-79
2021/11/22 10:50:36;;;;;;;2.17;0.87;;;;;;;;;;4991541;28;20598;-79
2021/11/22 10:53:03;;;;;;;2.10;0.93;;;;;;;;;;4990084;28;20568;-79
2021/11/22 10:55:42;;;;;;;4.33;1.10;;;;;;;;;;4988359;28;20472;-78
2021/11/22 10:58:07;;;;;;;1.10;0.70;;;;;;;;;;4992748;28;20520;-78
2021/11/22 11:00:34;;;;;;;2.00;0.90;;;;;;;;;;4992450;28;20601;-76
2021/11/22 11:03:04;;;;;;;1.30;0.77;;;;;;;;;;4994048;28;20562;-77
2021/11/22 11:05:30;;;;;;;2.80;0.70;;;;;;;;;;4992440;28;20465;-77
2021/11/22 11:08:08;;;;;;;2.53;0.90;;;;;;;;;;4993663;28;20427;-76
2021/11/22 11:10:34;;;;;;;2.77;0.80;;;;;;;;;;4990994;28;20192;-76
2021/11/22 11:13:00;;;;;;;2.43;1.00;;;;;;;;;;4991030;28;20440;-76
2021/11/22 11:15:25;;;;;;;2.70;0.70;;;;;;;;;;4994702;28;20205;-76
2021/11/22 11:17:51;;;;;;;2.57;0.90;;;;;;;;;;4995546;28;20802;-76
2021/11/22 11:20:17;;;;;;;2.57;0.60;;;;;;;;;;4994064;28;20211;-76
2021/11/22 11:22:43;;;;;;;1.07;0.87;;;;;;;;;;4996941;28;20177;-76
2021/11/22 11:25:09;;;;;;;1.73;0.90;;;;;;;;;;4993896;28;20470;-76
2021/11/22 11:27:37;;;;;;;1.40;0.77;;;;;;;;;;4995733;28;20269;-75
2021/11/22 11:30:03;;;;;;;2.10;0.70;;;;;;;;;;4995544;28;20170;-75
2021/11/22 11:32:29;;;;;;;1.60;0.70;;;;;;;;;;5003103;28;20789;-76
2021/11/22 11:34:57;;;;;;;2.40;0.93;;;;;;;;;;4994455;28;20442;-77
2021/11/22 11:37:41;;;;;;;1.90;0.80;;;;;;;;;;4992168;28;20185;-76
2021/11/22 11:40:18;;;;;;;2.03;0.70;;;;;;;;;;4993426;28;20469;-76
2021/11/22 11:43:03;;;;;;;5.40;0.70;;;;;;;;;;4996445;28;21753;-77
2021/11/22 11:45:28;;;;;;;3.17;0.60;;;;;;;;;;4992294;28;20544;-77
2021/11/22 11:48:05;;;;;;;3.57;0.90;;;;;;;;;;4992990;28;20522;-78
2021/11/22 11:50:33;;;;;;;4.50;0.90;;;;;;;;;;4991519;28;20251;-77
2021/11/22 11:53:04;;;;;;;4.87;0.90;;;;;;;;;;4996243;28;20802;-77
2021/11/22 11:55:29;;;;;;;4.87;1.20;;;;;;;;;;4989423;28;20484;-77
2021/11/22 11:58:27;;;;;;;1.70;0.70;;;;;;;;;;4994145;28;20476;-76
2021/11/22 12:00:54;;;;;;;3.07;1.00;;;;;;;;;;4949662;28;20683;-76
2021/11/22 12:03:20;;;;;;;0.60;0.60;;;;;;;;;;4999242;28;20580;-77
2021/11/22 12:05:47;;;;;;;2.37;0.63;;;;;;;;;;4995467;28;20487;-76
2021/11/22 12:08:42;;;;;;;0.90;0.70;;;;;;;;;;4992996;28;20445;-77
2021/11/22 12:11:07;;;;;;;3.13;1.40;;;;;;;;;;4980608;28;20483;-76
2021/11/22 12:13:50;;;;;;;1.80;0.90;;;;;;;;;;4991832;28;20532;-76
2021/11/22 12:16:38;;;;;;;1.50;0.90;;;;;;;;;;4996552;28;20229;-75
2021/11/22 12:19:22;;;;;;;0.93;0.67;;;;;;;;;;4990635;28;21479;-75
2021/11/22 12:21:47;;;;;;;1.37;0.50;;;;;;;;;;4992521;28;20530;-75
2021/11/22 12:24:13;;;;;;;1.53;1.00;;;;;;;;;;4995285;28;20838;-77
2021/11/22 12:26:38;;;;;;;2.33;1.10;;;;;;;;;;4993729;28;20208;-76
2021/11/22 12:29:05;;;;;;;1.07;0.60;;;;;;;;;;4995795;28;20524;-76
2021/11/22 12:31:32;;;;;;;2.37;0.80;;;;;;;;;;4992719;28;20597;-76
2021/11/22 12:33:58;;;;;;;1.07;1.07;;;;;;;;;;4995439;28;20450;-76
2021/11/22 12:36:23;;;;;;;1.00;0.83;;;;;;;;;;4992785;28;20464;-76
2021/11/22 12:38:49;;;;;;;2.30;0.90;;;;;;;;;;4995702;28;20177;-76
2021/11/22 12:41:22;;;;;;;2.30;1.03;;;;;;;;;;4993934;28;20257;-76
2021/11/22 12:43:52;;;;;;;2.80;1.17;;;;;;;;;;4992770;28;20451;-76
2021/11/22 12:46:19;;;;;;;1.63;1.00;;;;;;;;;;4994076;28;20457;-76
2021/11/22 12:48:47;;;;;;;1.77;0.90;;;;;;;;;;4995165;28;20476;-76
2021/11/22 12:51:14;;;;;;;1.53;0.80;;;;;;;;;;4998965;28;20563;-77
2021/11/22 12:53:59;;;;;;;2.70;0.90;;;;;;;;;;4991926;28;20425;-77
2021/11/22 12:56:27;;;;;;;1.27;0.80;;;;;;;;;;4998429;28;21039;-76
2021/11/22 12:59:04;;;;;;;2.27;1.10;;;;;;;;;;5012147;28;20435;-76
2021/11/22 13:01:30;;;;;;;2.43;1.00;;;;;;;;;;5002771;28;21010;-77
2021/11/22 13:03:55;;;;;;;1.90;1.13;;;;;;;;;;5002303;28;20460;-77
2021/11/22 13:06:32;;;;;;;3.80;1.00;;;;;;;;;;4999006;28;20555;-77
2021/11/22 13:08:57;;;;;;;2.33;0.80;;;;;;;;;;4998154;28;20643;-76
2021/11/22 13:11:28;;;;;;;2.20;0.77;;;;;;;;;;4999703;28;20474;-77
2021/11/22 13:13:57;;;;;;;2.37;1.20;;;;;;;;;;4994650;28;20211;-77
2021/11/22 13:16:24;;;;;;;0.60;0.50;;;;;;;;;;4993133;28;20456;-77
2021/11/22 13:18:56;;;;;;;2.60;0.73;;;;;;;;;;4992167;28;20882;-77
2021/11/22 13:21:24;;;;;;;5.83;1.13;;;;;;;;;;4996797;28;20460;-77
2021/11/22 13:23:50;;;;;;;1.63;0.70;;;;;;;;;;4996336;28;20428;-76
2021/11/22 13:26:17;;;;;;;3.13;0.77;;;;;;;;;;4993809;28;20884;-76
2021/11/22 13:28:48;;;;;;;1.00;0.60;;;;;;;;;;4999115;28;20452;-76
2021/11/22 13:31:14;;;;;;;1.80;0.90;;;;;;;;;;4996044;28;20499;-76
2021/11/22 13:33:39;;;;;;;1.53;0.90;;;;;;;;;;4996913;28;20436;-76
2021/11/22 13:36:04;;;;;;;2.33;0.90;;;;;;;;;;4994032;28;20201;-76
2021/11/22 13:38:30;;;;;;;3.80;1.10;;;;;;;;;;4997954;28;20189;-77
2021/11/22 13:40:57;;;;;;;2.47;0.70;;;;;;;;;;4995601;28;20241;-78
2021/11/22 13:43:27;;;;;;;2.70;1.10;;;;;;;;;;4996980;28;20535;-78
2021/11/22 13:45:53;;;;;;;4.30;0.80;;;;;;;;;;4991039;28;20459;-77
2021/11/22 13:48:19;;;;;;;1.97;0.87;;;;;;;;;;4998127;28;20444;-77
2021/11/22 13:50:47;;;;;;;2.63;0.80;;;;;;;;;;4993470;28;20440;-78
2021/11/22 13:53:13;;;;;;;2.70;0.80;;;;;;;;;;4998263;28;20196;-77
2021/11/22 13:55:40;;;;;;;2.87;1.03;;;;;;;;;;4991760;28;20464;-77
2021/11/22 13:58:13;;;;;;;3.57;0.90;;;;;;;;;;5004600;28;20442;-75
2021/11/22 14:00:39;;;;;;;2.43;1.10;;;;;;;;;;4996518;28;20572;-75
2021/11/22 14:03:07;;;;;;;3.07;1.20;;;;;;;;;;4998966;28;20432;-76
2021/11/22 14:05:32;;;;;;;2.97;1.00;;;;;;;;;;4994018;28;20452;-76
2021/11/22 14:07:59;;;;;;;4.40;1.10;;;;;;;;;;4996579;28;20475;-75
2021/11/22 14:10:31;;;;;;;3.40;1.47;;;;;;;;;;4986566;28;20272;-76
2021/11/22 14:13:07;;;;;;;2.57;0.80;;;;;;;;;;4989337;28;20443;-76
2021/11/22 14:15:34;;;;;;;6.13;0.80;;;;;;;;;;4992012;28;20449;-75
2021/11/22 14:18:02;;;;;;;1.00;0.80;;;;;;;;;;4993748;28;20523;-75
2021/11/22 14:20:27;;;;;;;1.97;0.80;;;;;;;;;;4992078;28;20479;-76
2021/11/22 14:22:59;;;;;;;4.57;0.87;;;;;;;;;;4985785;28;20463;-77
2021/11/22 14:25:26;;;;;;;3.50;1.00;;;;;;;;;;4991449;28;20291;-76
2021/11/22 14:27:53;;;;;;;2.90;0.90;;;;;;;;;;4988996;28;20445;-77
2021/11/22 14:30:32;;;;;;;1.77;0.90;;;;;;;;;;4983224;28;20538;-76
2021/11/22 14:33:03;;;;;;;3.20;1.00;;;;;;;;;;4991982;28;20443;-77
2021/11/22 14:35:29;;;;;;;2.30;0.90;;;;;;;;;;4993421;28;20458;-75
2021/11/22 14:38:08;;;;;;;3.63;0.90;;;;;;;;;;4993975;28;20436;-76
2021/11/22 14:40:34;;;;;;;2.10;0.90;;;;;;;;;;4996436;28;20589;-76
2021/11/22 14:43:33;;;;;;;4.03;1.00;;;;;;;;;;4994936;28;20429;-77